Time;durP1;ratioP1;P1;durP2;ratioP2;P2;SDS_P1;SDS_P2;PMS_P1;PMS_P2;Temp;Humidity;BMP_temperature;BMP_pressure;BME280_temperature;BME280_humidity;BME280_pressure;Samples;Min_cycle;Max_cycle;Signal;HPM_P1;HPM_P2
2021/12/15 00:00:18;;;;;;;;;;;;;;;2.28;86.94;101147.17;1767195;80;20216;-62
2021/12/15 00:02:50;;;;;;;;;;;;;;;2.27;86.83;101151.36;1757262;81;20160;-59
2021/12/15 00:05:22;;;;;;;;;;;;;;;2.27;86.82;101147.30;1739137;82;20180;-59
2021/12/15 00:07:51;;;;;;;;;;;;;;;2.29;86.78;101157.00;1740588;81;20152;-61
2021/12/15 00:10:20;;;;;;;;;;;;;;;2.30;86.74;101160.56;1747404;82;20216;-61
2021/12/15 00:12:50;;;;;;;;;;;;;;;2.30;86.82;101164.12;1747493;81;20160;-61
2021/12/15 00:15:21;;;;;;;;;;;;;;;2.30;86.88;101161.42;1747558;81;20191;-61
2021/12/15 00:17:51;;;;;;;;;;;;;;;2.28;86.90;101159.83;1754653;81;20489;-61
2021/12/15 00:20:19;;;;;;;;;;;;;;;2.26;86.86;101164.02;1765327;80;20172;-61
2021/12/15 00:22:52;;;;;;;;;;;;;;;2.24;86.93;101156.52;1761585;81;20532;-62
2021/12/15 00:25:20;;;;;;;;;;;;;;;2.26;86.97;101157.25;1747781;81;20220;-61
2021/12/15 00:27:48;;;;;;;;;;;;;;;2.23;87.00;101150.25;1747693;81;20816;-61
2021/12/15 00:30:17;;;;;;;;;;;;;;;2.22;87.04;101155.79;1747661;81;20200;-62
2021/12/15 00:32:46;;;;;;;;;;;;;;;2.24;87.03;101155.17;1747514;82;20156;-63
2021/12/15 00:35:14;;;;;;;;;;;;;;;2.21;86.94;101153.58;1749412;81;20211;-60
2021/12/15 00:37:43;;;;;;;;;;;;;;;2.19;86.92;101154.20;1758145;80;20173;-62
2021/12/15 00:40:13;;;;;;;;;;;;;;;2.22;86.97;101155.30;1743520;82;20483;-62
2021/12/15 00:42:41;;;;;;;;;;;;;;;2.23;86.85;101153.45;1736749;82;20156;-62
2021/12/15 00:45:10;;;;;;;;;;;;;;;2.26;86.88;101153.69;1743918;82;20473;-64
2021/12/15 00:47:39;;;;;;;;;;;;;;;2.26;86.84;101152.34;1747693;82;20148;-60
2021/12/15 00:50:08;;;;;;;;;;;;;;;2.25;86.85;101161.44;1747572;81;20196;-62
2021/12/15 00:52:39;;;;;;;;;;;;;;;2.21;86.88;101161.69;1756272;81;20175;-61
2021/12/15 00:55:10;;;;;;;;;;;;;;;2.22;87.05;101159.84;1756604;81;20474;-61
2021/12/15 00:57:38;;;;;;;;;;;;;;;2.22;87.11;101159.35;1765383;81;20227;-60
2021/12/15 01:00:09;;;;;;;;;;;;;;;2.26;87.24;101164.02;1765325;81;20204;-62
2021/12/15 01:02:37;;;;;;;;;;;;;;;2.26;87.30;101159.09;1767409;81;20480;-62
2021/12/15 01:05:07;;;;;;;;;;;;;;;2.25;87.36;101161.44;1751684;81;20163;-60
2021/12/15 01:07:35;;;;;;;;;;;;;;;2.23;87.47;101155.66;1747679;82;20152;-60
2021/12/15 01:10:06;;;;;;;;;;;;;;;2.23;87.52;101151.61;1747415;81;20152;-63
2021/12/15 01:20:51;;;;;;;;;;;;;;;2.14;87.41;101132.08;1765430;81;20228;-60
2021/12/15 01:23:22;;;;;;;;;;;;;;;2.12;87.45;101134.05;1765393;81;20168;-63
2021/12/15 01:25:53;;;;;;;;;;;;;;;2.13;87.54;101138.48;1765427;80;20140;-60
2021/12/15 01:28:23;;;;;;;;;;;;;;;2.15;87.58;101137.86;1765413;80;20199;-61
2021/12/15 01:30:52;;;;;;;;;;;;;;;2.15;87.50;101142.41;1765402;81;20196;-61
2021/12/15 01:33:22;;;;;;;;;;;;;;;2.16;87.41;101132.81;1765209;80;20156;-61
2021/12/15 01:35:55;;;;;;;;;;;;;;;2.15;87.29;101123.48;1761979;81;20192;-61
2021/12/15 01:38:27;;;;;;;;;;;;;;;2.11;87.10;101124.23;1765410;80;20196;-62
2021/12/15 01:40:55;;;;;;;;;;;;;;;2.09;87.14;101118.58;1765450;80;20160;-62
2021/12/15 01:43:50;;;;;;;;;;;;;;;2.09;87.07;101119.44;1765438;81;20144;-61
2021/12/15 01:48:58;;;;;;;;;;;;;;;2.11;86.92;101126.07;1745406;82;20192;-61
2021/12/15 01:51:27;;;;;;;;;;;;;;;2.13;86.83;101122.75;1718372;83;20196;-61
2021/12/15 01:53:55;;;;;;;;;;;;;;;2.14;86.90;101128.03;1720706;81;20183;-62
2021/12/15 01:56:24;;;;;;;;;;;;;;;2.14;86.89;101126.67;1716257;83;20153;-60
2021/12/15 01:58:53;;;;;;;;;;;;;;;2.14;86.93;101126.67;1723563;83;20194;-60
2021/12/15 02:01:21;;;;;;;;;;;;;;;2.15;86.87;101135.65;1682385;85;20463;-60
2021/12/15 02:03:50;;;;;;;;;;;;;;;2.13;86.88;101130.37;1712203;84;20154;-61
2021/12/15 02:06:20;;;;;;;;;;;;;;;2.16;86.87;101138.22;1705137;83;20248;-62
2021/12/15 02:08:49;;;;;;;;;;;;;;;2.12;86.77;101142.66;1785389;78;20150;-60
2021/12/15 02:11:18;;;;;;;;;;;;;;;2.10;86.83;101146.84;1789848;79;20151;-60
2021/12/15 02:13:46;;;;;;;;;;;;;;;2.10;86.80;101135.16;1781749;81;20191;-61
2021/12/15 02:16:14;;;;;;;;;;;;;;;2.06;86.78;101141.31;1781590;80;20219;-62
2021/12/15 02:18:45;;;;;;;;;;;;;;;2.06;86.73;101141.31;1781827;81;20191;-61
2021/12/15 02:21:20;;;;;;;;;;;;;;;2.08;86.71;101135.78;1781907;79;20519;-61
2021/12/15 02:23:53;;;;;;;;;;;;;;;2.07;86.68;101138.98;1781829;80;20545;-60
2021/12/15 02:26:27;;;;;;;;;;;;;;;2.04;86.65;101125.72;1781697;81;20171;-62
2021/12/15 02:28:58;;;;;;;;;;;;;;;2.04;86.65;101127.06;1781710;80;20255;-63
2021/12/15 02:37:17;;;;;;;;;;;;;;;2.04;86.16;101114.05;1805750;79;20149;-61
2021/12/15 02:39:56;;;;;;;;;;;;;;;2.03;86.03;101118.59;1805632;79;20157;-63
2021/12/15 02:42:27;;;;;;;;;;;;;;;2.06;85.97;101114.78;1805950;79;20189;-61
2021/12/15 02:44:55;;;;;;;;;;;;;;;2.09;85.95;101119.93;1801861;79;20544;-61
2021/12/15 02:47:27;;;;;;;;;;;;;;;2.08;85.92;101127.67;1805050;79;20149;-61
2021/12/15 02:49:56;;;;;;;;;;;;;;;2.06;85.83;101119.69;1805523;79;20169;-60
2021/12/15 02:52:24;;;;;;;;;;;;;;;2.03;85.56;101117.23;1805675;79;20185;-61
2021/12/15 02:54:52;;;;;;;;;;;;;;;2.03;85.66;101128.54;1805703;79;20174;-61
2021/12/15 02:57:21;;;;;;;;;;;;;;;2.05;85.74;101133.33;1805682;79;20153;-63
2021/12/15 03:05:24;;;;;;;;;;;;;;;2.06;85.47;101135.91;1752520;81;20504;-62
2021/12/15 03:15:57;;;;;;;;;;;;;;;2.00;85.67;101139.60;1736752;83;20458;-61
2021/12/15 03:18:28;;;;;;;;;;;;;;;2.00;85.59;101147.22;1737344;79;20149;-61
2021/12/15 03:20:59;;;;;;;;;;;;;;;2.00;85.47;101142.30;1736850;83;20188;-60
2021/12/15 03:23:40;;;;;;;;;;;;;;;1.99;85.46;101142.80;1784300;79;20523;-61
2021/12/15 03:26:07;;;;;;;;;;;;;;;1.99;85.47;101134.69;1805373;79;20213;-61
2021/12/15 03:35:04;;;;;;;;;;;;;;;2.00;85.48;101141.81;1805345;79;20154;-62
2021/12/15 03:37:06;;;;;;;;;;;;;;;1.99;85.40;101140.09;1715261;83;20472;-62
2021/12/15 03:39:23;;;;;;;;;;;;;;;1.98;85.47;101134.81;1750627;81;20152;-61
2021/12/15 03:41:58;;;;;;;;;;;;;;;2.00;85.47;101143.16;1760212;81;20243;-60
2021/12/15 03:44:24;;;;;;;;;;;;;;;2.00;85.45;101142.30;1739001;82;20456;-61
2021/12/15 03:46:54;;;;;;;;;;;;;;;2.00;85.57;101143.16;1741436;82;20230;-61
2021/12/15 03:49:23;;;;;;;;;;;;;;;1.97;85.43;101150.66;1736484;82;20178;-61
2021/12/15 03:51:51;;;;;;;;;;;;;;;1.93;85.64;101151.37;1736346;83;20472;-62
2021/12/15 03:54:19;;;;;;;;;;;;;;;1.92;85.64;101157.75;1733760;82;20150;-62
2021/12/15 03:56:49;;;;;;;;;;;;;;;1.87;85.67;101154.08;1736274;82;20501;-63
2021/12/15 03:59:20;;;;;;;;;;;;;;;1.87;85.76;101154.56;1735694;83;20281;-62
2021/12/15 04:01:48;;;;;;;;;;;;;;;1.87;85.84;101159.48;1736297;82;20273;-62
2021/12/15 04:04:17;;;;;;;;;;;;;;;1.84;85.94;101158.86;1712019;82;20153;-62
2021/12/15 04:06:46;;;;;;;;;;;;;;;1.81;86.11;101157.27;1776721;80;20156;-62
2021/12/15 04:09:16;;;;;;;;;;;;;;;1.81;86.26;101160.46;1766833;81;20164;-62
2021/12/15 04:11:44;;;;;;;;;;;;;;;1.80;86.33;101160.95;1743080;81;20332;-63
2021/12/15 04:14:20;;;;;;;;;;;;;;;1.81;86.44;101167.22;1741656;82;20156;-62
2021/12/15 04:16:58;;;;;;;;;;;;;;;1.77;86.42;101169.30;1741647;81;20187;-61
2021/12/15 04:19:19;;;;;;;;;;;;;;;1.73;86.55;101174.58;1741023;81;20268;-61
2021/12/15 04:21:48;;;;;;;;;;;;;;;1.70;86.59;101167.22;1741820;82;20212;-62
2021/12/15 04:24:17;;;;;;;;;;;;;;;1.69;86.70;101170.89;1759888;81;20211;-60
2021/12/15 04:26:46;;;;;;;;;;;;;;;1.67;86.74;101170.16;1769370;81;20188;-61
2021/12/15 04:29:15;;;;;;;;;;;;;;;1.66;86.87;101176.05;1769344;81;20187;-63
2021/12/15 04:31:47;;;;;;;;;;;;;;;1.68;86.96;101176.79;1769541;81;20470;-62
2021/12/15 04:34:16;;;;;;;;;;;;;;;1.70;86.98;101184.77;1769370;81;20180;-60
2021/12/15 04:36:47;;;;;;;;;;;;;;;1.71;86.95;101181.95;1769445;81;20276;-61
2021/12/15 04:39:17;;;;;;;;;;;;;;;1.73;86.96;101180.48;1769083;81;20599;-62
2021/12/15 04:41:51;;;;;;;;;;;;;;;1.72;87.00;101185.02;1751010;81;20188;-62
2021/12/15 04:44:22;;;;;;;;;;;;;;;1.75;87.01;101194.72;1766819;81;20944;-61
2021/12/15 04:47:04;;;;;;;;;;;;;;;1.74;86.82;101193.86;1769322;81;20152;-62
2021/12/15 04:49:33;;;;;;;;;;;;;;;1.73;86.75;101196.69;1768438;81;20188;-61
2021/12/15 04:52:02;;;;;;;;;;;;;;;1.72;86.68;101201.72;1769424;81;20462;-63
2021/12/15 04:54:31;;;;;;;;;;;;;;;1.72;86.65;101199.87;1739560;82;20162;-63
2021/12/15 04:57:01;;;;;;;;;;;;;;;1.75;86.61;101204.17;1716528;82;20155;-63
2021/12/15 04:59:31;;;;;;;;;;;;;;;1.74;86.53;101205.16;1697732;84;20223;-61
2021/12/15 05:02:00;;;;;;;;;;;;;;;1.73;86.20;101204.79;1702156;83;20225;-62
2021/12/15 05:04:28;;;;;;;;;;;;;;;1.70;86.16;101196.44;1738804;82;20267;-62
2021/12/15 05:06:56;;;;;;;;;;;;;;;1.72;86.19;101199.02;1738157;83;20281;-63
2021/12/15 05:09:24;;;;;;;;;;;;;;;1.71;85.99;101207.61;1736981;82;20202;-62
2021/12/15 05:11:54;;;;;;;;;;;;;;;1.74;85.89;101211.42;1727759;83;20160;-61
2021/12/15 05:14:23;;;;;;;;;;;;;;;1.74;85.87;101197.91;1741865;82;20214;-62
2021/12/15 05:16:52;;;;;;;;;;;;;;;1.70;85.54;101198.28;1739134;82;20586;-63
2021/12/15 05:19:21;;;;;;;;;;;;;;;1.67;85.62;101202.58;1739245;82;20509;-62
2021/12/15 05:21:51;;;;;;;;;;;;;;;1.66;85.49;101200.36;1748252;81;20486;-62
2021/12/15 05:24:38;;;;;;;;;;;;;;;1.65;85.44;101200.48;1767314;81;20844;-62
2021/12/15 05:26:53;;;;;;;;;;;;;;;1.70;85.31;101206.38;1760926;81;20540;-62
2021/12/15 05:29:23;;;;;;;;;;;;;;;1.76;85.17;101201.84;1767697;81;20226;-62
2021/12/15 05:31:51;;;;;;;;;;;;;;;1.78;84.93;101201.23;1767233;80;20219;-62
2021/12/15 05:34:20;;;;;;;;;;;;;;;1.78;84.68;101206.14;1766810;80;20219;-66
2021/12/15 05:36:51;;;;;;;;;;;;;;;1.77;84.63;101203.56;1752770;81;20191;-67
2021/12/15 05:39:20;;;;;;;;;;;;;;;1.76;84.28;101204.55;1767561;81;20566;-62
2021/12/15 05:41:49;;;;;;;;;;;;;;;1.72;84.08;101207.98;1755238;81;20171;-67
2021/12/15 05:44:18;;;;;;;;;;;;;;;1.74;84.20;101221.37;1767417;81;20454;-63
2021/12/15 05:46:46;;;;;;;;;;;;;;;1.73;84.19;101218.30;1767344;81;20228;-63
2021/12/15 05:49:15;;;;;;;;;;;;;;;1.72;84.21;101230.08;1766922;80;20200;-62
2021/12/15 05:51:43;;;;;;;;;;;;;;;1.68;84.21;101228.61;1767109;80;20152;-62
2021/12/15 05:54:12;;;;;;;;;;;;;;;1.69;84.38;101228.97;1759788;81;20194;-62
2021/12/15 05:56:42;;;;;;;;;;;;;;;1.70;84.42;101232.91;1738910;82;20146;-62
2021/12/15 05:59:11;;;;;;;;;;;;;;;1.73;84.50;101236.72;1720714;83;20438;-61
2021/12/15 06:01:39;;;;;;;;;;;;;;;1.75;84.41;101237.95;1736283;81;20179;-63
2021/12/15 06:04:08;;;;;;;;;;;;;;;1.73;84.36;101239.42;1770928;81;20223;-63
2021/12/15 06:06:37;;;;;;;;;;;;;;;1.69;84.41;101241.13;1767101;81;20467;-62
2021/12/15 06:09:08;;;;;;;;;;;;;;;1.67;84.51;101245.80;1767195;80;20144;-62
2021/12/15 06:11:39;;;;;;;;;;;;;;;1.66;84.60;101247.64;1769499;80;20461;-63
2021/12/15 06:14:07;;;;;;;;;;;;;;;1.65;84.55;101248.62;1769990;81;20203;-62
2021/12/15 06:16:35;;;;;;;;;;;;;;;1.64;84.55;101246.89;1770036;81;20994;-63
2021/12/15 06:19:05;;;;;;;;;;;;;;;1.67;84.67;101248.50;1769858;81;20195;-62
2021/12/15 06:21:36;;;;;;;;;;;;;;;1.69;84.61;101253.29;1657019;83;20222;-62
2021/12/15 06:24:05;;;;;;;;;;;;;;;1.67;84.56;101257.46;1652883;87;20573;-63
2021/12/15 06:26:34;;;;;;;;;;;;;;;1.66;84.57;101255.73;1654465;86;20210;-63
2021/12/15 06:29:03;;;;;;;;;;;;;;;1.68;84.60;101265.07;1652725;87;20151;-63
2021/12/15 06:31:32;;;;;;;;;;;;;;;1.67;84.44;101258.81;1654450;86;20198;-63
2021/12/15 06:34:00;;;;;;;;;;;;;;;1.67;84.10;101260.65;1653335;84;20255;-66
2021/12/15 06:36:30;;;;;;;;;;;;;;;1.66;84.13;101263.84;1653325;87;20489;-62
2021/12/15 06:38:59;;;;;;;;;;;;;;;1.68;84.14;101270.47;1694421;82;20511;-63
2021/12/15 06:41:27;;;;;;;;;;;;;;;1.70;84.15;101268.52;1730483;83;20544;-63
2021/12/15 06:43:57;;;;;;;;;;;;;;;1.68;83.99;101270.47;1730440;83;20178;-62
2021/12/15 07:00:22;;;;;;;;;;;;;;;1.72;82.98;101267.91;1798420;79;20213;-64
2021/12/15 07:02:50;;;;;;;;;;;;;;;1.72;82.88;101269.26;1811495;79;20141;-64
2021/12/15 07:05:19;;;;;;;;;;;;;;;1.73;82.91;101268.28;1811063;79;20181;-63
2021/12/15 07:07:47;;;;;;;;;;;;;;;1.76;83.01;101273.44;1811157;79;20153;-64
2021/12/15 07:10:19;;;;;;;;;;;;;;;1.71;82.71;101267.05;1808547;79;20212;-63
2021/12/15 07:12:48;;;;;;;;;;;;;;;1.68;82.93;101269.98;1802477;80;20162;-64
2021/12/15 07:15:16;;;;;;;;;;;;;;;1.70;83.15;101272.56;1802539;79;20221;-63
2021/12/15 07:17:49;;;;;;;;;;;;;;;1.70;83.32;101272.56;1798164;79;20181;-63
2021/12/15 07:20:42;;;;;;;;;;;;;;;1.64;83.01;101279.80;1741534;82;20172;-62
2021/12/15 07:23:09;;;;;;;;;;;;;;;1.61;83.17;101282.73;1733667;83;20144;-63
2021/12/15 07:25:38;;;;;;;;;;;;;;;1.62;83.37;101285.31;1734427;83;20439;-63
2021/12/15 07:28:07;;;;;;;;;;;;;;;1.61;83.32;101292.19;1736818;81;20227;-62
2021/12/15 07:30:37;;;;;;;;;;;;;;;1.63;83.50;101290.23;1811082;79;20193;-63
2021/12/15 07:33:07;;;;;;;;;;;;;;;1.65;83.47;101289.62;1811023;79;20157;-64
2021/12/15 07:35:36;;;;;;;;;;;;;;;1.66;83.35;101289.99;1802853;79;20205;-64
2021/12/15 07:38:06;;;;;;;;;;;;;;;1.68;83.01;101296.14;1780281;80;20211;-62
2021/12/15 07:40:37;;;;;;;;;;;;;;;1.69;82.89;101300.08;1742487;82;20160;-67
2021/12/15 07:43:10;;;;;;;;;;;;;;;1.67;82.62;101305.22;1736102;81;20183;-62
2021/12/15 07:45:42;;;;;;;;;;;;;;;1.67;82.23;101305.22;1805325;79;20468;-63
2021/12/15 07:48:14;;;;;;;;;;;;;;;1.67;82.22;101303.88;1802557;80;20150;-62
2021/12/15 07:50:53;;;;;;;;;;;;;;;1.69;82.21;101316.28;1802277;80;20158;-62
2021/12/15 07:53:21;;;;;;;;;;;;;;;1.74;81.97;101316.78;1802340;80;20207;-62
2021/12/15 07:55:50;;;;;;;;;;;;;;;1.77;81.91;101324.66;1801750;80;20201;-63
2021/12/15 07:58:19;;;;;;;;;;;;;;;1.80;81.65;101327.12;1802742;80;20169;-62
2021/12/15 08:00:48;;;;;;;;;;;;;;;1.80;81.59;101320.86;1802379;79;20261;-63
2021/12/15 08:03:17;;;;;;;;;;;;;;;1.84;81.47;101321.84;1799981;80;20170;-62
2021/12/15 08:05:48;;;;;;;;;;;;;;;1.86;81.30;101340.64;1802486;80;20166;-62
2021/12/15 08:08:17;;;;;;;;;;;;;;;1.84;81.08;101331.30;1802365;80;20216;-63
2021/12/15 08:10:45;;;;;;;;;;;;;;;1.84;80.78;101334.01;1802230;79;20193;-63
2021/12/15 08:13:15;;;;;;;;;;;;;;;1.85;80.29;101326.77;1794875;80;20213;-63
2021/12/15 08:15:44;;;;;;;;;;;;;;;1.86;80.15;101329.34;1749753;82;20183;-63
2021/12/15 08:18:12;;;;;;;;;;;;;;;1.85;79.66;101328.11;1765893;80;20510;-64
2021/12/15 08:20:41;;;;;;;;;;;;;;;1.80;78.96;101335.72;1802668;80;20142;-63
2021/12/15 08:23:10;;;;;;;;;;;;;;;1.78;78.64;101333.13;1802414;80;20181;-62
2021/12/15 08:25:39;;;;;;;;;;;;;;;1.80;78.31;101336.58;1801965;80;20177;-64
2021/12/15 08:28:08;;;;;;;;;;;;;;;1.82;77.44;101337.32;1802525;80;20313;-62
2021/12/15 08:30:38;;;;;;;;;;;;;;;1.84;77.19;101339.91;1743791;80;20462;-63
2021/12/15 08:33:10;;;;;;;;;;;;;;;1.86;77.22;101340.16;1734202;83;20474;-62
2021/12/15 08:35:44;;;;;;;;;;;;;;;1.89;76.91;101331.81;1734141;82;20188;-62
2021/12/15 08:38:14;;;;;;;;;;;;;;;1.93;76.23;101344.59;1734300;83;20156;-62
2021/12/15 08:40:43;;;;;;;;;;;;;;;1.90;75.37;101336.72;1734479;83;20216;-63
2021/12/15 08:43:14;;;;;;;;;;;;;;;1.89;75.51;101333.65;1734550;83;20172;-63
2021/12/15 08:45:46;;;;;;;;;;;;;;;1.92;75.84;101323.95;1740241;81;20220;-63
2021/12/15 08:48:14;;;;;;;;;;;;;;;1.90;76.15;101331.32;1742465;82;20196;-63
2021/12/15 08:50:43;;;;;;;;;;;;;;;1.90;76.41;101334.02;1759869;81;20179;-62
2021/12/15 08:53:11;;;;;;;;;;;;;;;1.90;76.82;101337.59;1739060;82;20246;-63
2021/12/15 08:55:42;;;;;;;;;;;;;;;1.90;76.98;101341.64;1736210;81;20547;-64
2021/12/15 08:58:11;;;;;;;;;;;;;;;1.88;76.79;101327.88;1711863;84;20553;-63
2021/12/15 09:00:42;;;;;;;;;;;;;;;1.84;76.69;101329.09;1711877;84;20905;-64
2021/12/15 09:03:12;;;;;;;;;;;;;;;1.81;76.60;101325.28;1713149;83;20222;-64
2021/12/15 09:05:41;;;;;;;;;;;;;;;1.77;76.47;101332.76;1771394;81;20263;-62
2021/12/15 09:08:12;;;;;;;;;;;;;;;1.82;77.27;101326.52;1777969;79;20161;-62
2021/12/15 09:10:43;;;;;;;;;;;;;;;1.78;76.43;101315.57;1800459;79;20663;-62
2021/12/15 09:13:13;;;;;;;;;;;;;;;1.77;75.75;101326.50;1802612;79;20213;-65
2021/12/15 09:15:48;;;;;;;;;;;;;;;1.76;75.51;101319.38;1724266;82;20169;-64
2021/12/15 09:18:22;;;;;;;;;;;;;;;1.77;74.56;101308.94;1708899;84;20177;-64
2021/12/15 09:20:51;;;;;;;;;;;;;;;1.77;73.75;101310.28;1710391;84;20220;-62
2021/12/15 09:23:21;;;;;;;;;;;;;;;1.80;73.83;101307.34;1739465;82;20166;-63
2021/12/15 09:25:50;;;;;;;;;;;;;;;1.82;73.34;101313.48;1745073;82;20189;-63
2021/12/15 09:28:19;;;;;;;;;;;;;;;1.83;73.13;101315.21;1744641;82;20181;-63
2021/12/15 09:30:48;;;;;;;;;;;;;;;1.85;72.54;101311.41;1744674;82;20178;-63
2021/12/15 09:33:22;;;;;;;;;;;;;;;1.84;71.50;101306.12;1759175;80;20158;-63
2021/12/15 09:35:50;;;;;;;;;;;;;;;1.82;71.33;101307.59;1801368;79;20256;-63
2021/12/15 09:38:19;;;;;;;;;;;;;;;1.82;71.43;101309.44;1802341;80;20532;-64
2021/12/15 09:41:09;;;;;;;;;;;;;;;1.83;71.20;101310.67;1800214;80;20181;-63
2021/12/15 09:43:39;;;;;;;;;;;;;;;1.82;71.08;101316.19;1667294;85;20580;-62
2021/12/15 09:46:26;;;;;;;;;;;;;;;1.80;71.21;101314.96;1663275;86;20299;-63
2021/12/15 10:02:35;;;;;;;;;;;;;;;1.65;70.96;101297.73;1683373;85;20539;-64
2021/12/15 10:05:24;;;;;;;;;;;;;;;1.70;70.91;101304.98;1682828;85;20176;-62
2021/12/15 10:19:24;;;;;;;;;;;;;;;1.70;71.30;101284.73;1683676;85;20194;-62
2021/12/15 10:22:00;;;;;;;;;;;;;;;1.72;71.57;101282.77;1676705;85;20582;-63
2021/12/15 10:24:36;;;;;;;;;;;;;;;1.76;71.30;101291.00;1656037;87;20165;-63
2021/12/15 10:27:06;;;;;;;;;;;;;;;1.74;71.12;101283.51;1656324;87;20471;-62
2021/12/15 10:29:35;;;;;;;;;;;;;;;1.68;71.25;101283.98;1656142;87;20173;-63
2021/12/15 10:32:06;;;;;;;;;;;;;;;1.65;71.57;101276.12;1682156;85;20179;-61
2021/12/15 10:34:34;;;;;;;;;;;;;;;1.64;71.67;101286.06;1683717;85;20521;-63
2021/12/15 10:37:04;;;;;;;;;;;;;;;1.61;71.69;101275.49;1683521;85;20159;-62
2021/12/15 10:39:33;;;;;;;;;;;;;;;1.62;72.00;101274.52;1683812;85;20452;-62
2021/12/15 10:42:02;;;;;;;;;;;;;;;1.64;72.08;101277.09;1661398;85;20261;-62
2021/12/15 10:44:30;;;;;;;;;;;;;;;1.61;72.10;101281.39;1657990;87;20188;-62
2021/12/15 10:47:04;;;;;;;;;;;;;;;1.56;72.36;101270.45;1658067;87;20523;-62
2021/12/15 10:49:33;;;;;;;;;;;;;;;1.54;72.35;101275.11;1657834;87;20157;-63
2021/12/15 10:52:06;;;;;;;;;;;;;;;1.52;72.60;101274.36;1657926;87;20174;-62
2021/12/15 10:54:49;;;;;;;;;;;;;;;1.54;73.11;101266.14;1671150;84;20262;-62
2021/12/15 10:57:23;;;;;;;;;;;;;;;1.53;73.20;101267.98;1717388;83;20446;-63
2021/12/15 10:59:53;;;;;;;;;;;;;;;1.50;73.53;101264.17;1648597;87;20539;-63
2021/12/15 11:02:27;;;;;;;;;;;;;;;1.44;73.59;101267.34;1657968;86;20476;-64
2021/12/15 11:05:02;;;;;;;;;;;;;;;1.38;73.80;101266.47;1630455;88;20196;-62
2021/12/15 11:07:49;;;;;;;;;;;;;;;1.40;74.76;101269.05;1630516;88;20191;-62
2021/12/15 11:10:27;;;;;;;;;;;;;;;1.40;74.54;101267.70;1630507;88;20183;-63
2021/12/15 11:13:03;;;;;;;;;;;;;;;1.37;74.91;101275.55;1634476;86;20432;-63
2021/12/15 11:15:41;;;;;;;;;;;;;;;1.39;75.14;101270.89;1670151;86;20301;-62
2021/12/15 11:18:18;;;;;;;;;;;;;;;1.34;74.45;101266.33;1670173;86;20215;-63
2021/12/15 11:20:53;;;;;;;;;;;;;;;1.26;74.68;101264.67;1670059;86;20218;-63
2021/12/15 11:23:26;;;;;;;;;;;;;;;1.24;74.70;101279.63;1669369;86;20225;-64
2021/12/15 11:25:57;;;;;;;;;;;;;;;1.25;75.33;101280.50;1642250;87;20214;-63
2021/12/15 11:28:34;;;;;;;;;;;;;;;1.20;74.50;101279.98;1641916;87;20473;-62
2021/12/15 11:31:23;;;;;;;;;;;;;;;1.15;74.19;101283.52;1642034;87;20324;-64
2021/12/15 11:34:00;;;;;;;;;;;;;;;1.16;74.32;101282.54;1642638;86;20454;-64
2021/12/15 11:36:34;;;;;;;;;;;;;;;1.18;74.19;101280.09;1645672;85;20147;-62
2021/12/15 11:39:08;;;;;;;;;;;;;;;1.19;73.86;101285.88;1662118;85;20222;-63
2021/12/15 12:00:20;;;;;;;6.58;2.70;;;;;;;1.44;72.45;101275.45;1848167;77;22192;-62
2021/12/15 12:02:54;;;;;;;2.72;1.80;;;;;;;1.42;72.20;101277.40;1725365;82;21539;-61
2021/12/15 12:05:34;;;;;;;13.62;2.30;;;;;;;1.42;71.92;101274.70;1753687;81;21131;-61
2021/12/15 12:08:07;;;;;;;7.92;2.47;;;;;;;1.39;71.32;101272.73;1732648;82;21308;-62
2021/12/15 12:10:50;;;;;;;4.87;2.83;;;;;;;1.31;71.53;101267.91;1662664;85;21222;-59
2021/12/15 12:13:28;;;;;;;6.53;2.83;;;;;;;1.26;71.78;101270.06;1722086;82;21103;-61
2021/12/15 12:16:01;;;;;;;9.85;2.92;;;;;;;1.25;71.76;101279.14;1721434;83;21138;-62
2021/12/15 12:18:32;;;;;;;8.43;3.70;;;;;;;1.20;71.92;101280.84;1721445;83;21628;-62
2021/12/15 12:21:08;;;;;;;6.20;2.62;;;;;;;1.19;71.83;101280.96;1721563;83;21174;-63
2021/12/15 12:23:45;;;;;;;10.03;2.90;;;;;;;1.20;72.02;101279.98;1721630;83;21562;-62
2021/12/15 12:26:19;;;;;;;12.07;3.30;;;;;;;1.15;71.82;101282.17;1721716;83;21279;-63
2021/12/15 12:28:51;;;;;;;14.63;5.12;;;;;;;1.15;72.29;101287.56;1722179;79;21404;-63
2021/12/15 12:31:24;;;;;;;8.43;4.12;;;;;;;1.15;72.48;101288.91;1731160;82;21210;-63
2021/12/15 12:33:59;;;;;;;10.00;3.50;;;;;;;1.14;72.79;101290.75;1738023;82;21676;-63
2021/12/15 12:36:37;;;;;;;2.17;1.22;;;;;;;1.15;72.26;101287.08;1746793;82;21559;-62
2021/12/15 12:39:11;;;;;;;4.55;2.25;;;;;;;1.13;71.84;101284.98;1730643;82;21595;-62
2021/12/15 12:41:46;;;;;;;4.53;1.80;;;;;;;1.11;71.51;101291.47;1729113;82;21177;-62
2021/12/15 12:44:21;;;;;;;11.80;4.83;;;;;;;1.10;71.56;101283.86;1741051;82;21156;-62
2021/12/15 12:47:01;;;;;;;10.53;2.40;;;;;;;1.08;71.83;101286.30;1722961;83;21190;-62
2021/12/15 13:01:13;;;;;;;13.38;4.05;;;;;;;1.16;73.47;101285.24;1751648;81;21159;-62
2021/12/15 13:03:56;;;;;;;11.22;3.50;;;;;;;1.19;73.22;101289.06;1707281;82;21140;-61
2021/12/15 13:06:27;;;;;;;14.00;3.90;;;;;;;1.22;73.25;101293.73;1774795;81;21637;-62
2021/12/15 13:09:06;;;;;;;9.33;3.72;;;;;;;1.24;73.52;101297.67;1775103;81;21144;-61
2021/12/15 13:11:38;;;;;;;7.17;3.10;;;;;;;1.29;73.74;101300.88;1774446;80;21174;-61
2021/12/15 13:14:13;;;;;;;12.60;3.20;;;;;;;1.29;73.88;101288.73;1774313;81;21150;-62
2021/12/15 13:16:58;;;;;;;6.80;3.05;;;;;;;1.31;74.04;101287.30;1774488;81;21122;-61
2021/12/15 13:19:44;;;;;;;13.80;3.42;;;;;;;1.31;74.10;101292.21;1774432;81;21151;-61
2021/12/15 13:22:46;;;;;;;13.90;3.72;;;;;;;1.26;74.41;101286.27;1774636;81;21519;-62
2021/12/15 13:31:16;;;;;;;15.50;4.80;;;;;;;1.21;75.48;101293.36;1774161;81;21123;-62
2021/12/15 13:33:56;;;;;;;7.60;4.15;;;;;;;1.19;75.62;101296.66;1753109;80;21103;-62
2021/12/15 13:36:31;;;;;;;12.33;3.52;;;;;;;1.20;76.00;101300.23;1774684;81;21123;-61
2021/12/15 13:39:11;;;;;;;7.90;3.27;;;;;;;1.24;76.12;101296.32;1774342;81;21131;-63
2021/12/15 13:42:00;;;;;;;7.90;2.83;;;;;;;1.26;76.22;101298.41;1774370;81;21293;-62
2021/12/15 13:44:35;;;;;;;12.00;4.47;;;;;;;1.21;76.32;101306.00;1774503;80;21226;-63
2021/12/15 13:47:14;;;;;;;5.67;3.27;;;;;;;1.16;76.76;101309.53;1774339;81;21088;-62
2021/12/15 13:49:58;;;;;;;9.93;4.08;;;;;;;1.23;78.28;101310.80;1789659;79;21159;-62
2021/12/15 13:52:43;;;;;;;12.10;4.28;;;;;;;1.32;78.27;101313.32;1805894;79;21095;-62
2021/12/15 13:55:30;;;;;;;8.78;3.40;;;;;;;1.35;78.19;101309.04;1735297;83;21139;-62
2021/12/15 13:58:32;;;;;;;6.17;3.50;;;;;;;1.34;78.48;101313.58;1736141;82;21171;-64
2021/12/15 14:01:05;;;;;;;7.47;3.27;;;;;;;1.32;78.45;101308.78;1686019;85;21540;-63
2021/12/15 14:03:44;;;;;;;5.28;3.17;;;;;;;1.25;78.28;101311.54;1679895;83;21644;-62
2021/12/15 14:06:16;;;;;;;9.40;3.83;;;;;;;1.25;79.66;101315.09;1684503;85;21596;-61
2021/12/15 14:08:49;;;;;;;10.32;3.90;;;;;;;1.32;80.06;101315.53;1670146;85;21741;-62
2021/12/15 14:11:31;;;;;;;11.90;3.70;;;;;;;1.47;81.22;101317.55;1666983;86;21209;-61
2021/12/15 14:14:22;;;;;;;14.65;5.37;;;;;;;1.48;80.51;101318.79;1668039;85;21180;-63
2021/12/15 14:16:55;;;;;;;9.30;4.17;;;;;;;1.43;79.67;101323.68;1691259;84;21118;-63
2021/12/15 14:19:31;;;;;;;11.45;4.10;;;;;;;1.35;79.49;101320.70;1683090;85;21321;-62
2021/12/15 14:22:05;;;;;;;11.08;5.17;;;;;;;1.30;79.47;101322.89;1681525;85;21206;-64
2021/12/15 14:24:34;;;;;;;10.88;4.78;;;;;;;1.20;79.41;101329.43;1681942;85;21150;-62
2021/12/15 14:27:04;;;;;;;13.05;5.37;;;;;;;1.20;79.68;101329.92;1682363;85;21155;-63
2021/12/15 14:29:33;;;;;;;10.48;4.60;;;;;;;1.19;79.82;101330.90;1682405;85;21965;-62
2021/12/15 14:32:04;;;;;;;6.28;3.90;;;;;;;1.18;80.03;101332.73;1681982;85;21638;-63
2021/12/15 14:34:37;;;;;;;8.48;4.90;;;;;;;1.18;80.18;101330.03;1682003;85;21265;-62
2021/12/15 14:37:09;;;;;;;13.83;6.70;;;;;;;1.17;80.31;101330.15;1698456;83;21126;-59
2021/12/15 14:39:42;;;;;;;15.50;5.10;;;;;;;1.13;80.49;101330.00;1722514;83;21165;-62
2021/12/15 14:42:21;;;;;;;9.50;4.60;;;;;;;1.12;80.74;101328.28;1704729;83;21126;-61
2021/12/15 14:45:00;;;;;;;14.78;7.90;;;;;;;1.10;80.84;101328.39;1694642;84;21230;-61